Ionia, MI

2:49 AM EDT on August 20, 2017 (GMT -0400)
Ionia

Weather History for KY70 - November, 2012

Change the Weather History Date:

Monday, November 5, 2012

  Actual Average (KGRR) Record (KGRR)
Temperature  
Mean Temperature 30 °F -  
Max Temperature 37 °F 48 °F 75 °F (1978)
Min Temperature 23 °F 33 °F 6 °F (1951)
Degree Days  
Heating Degree Days 35    
Moisture  
Dew Point 25 °F    
Average Humidity 81    
Maximum Humidity 94    
Minimum Humidity 61    
Precipitation  
Precipitation 0.00 in - - ()
Sea Level Pressure  
Sea Level Pressure 30.18 in    
Wind  
Wind Speed 3 mph (ENE)    
Max Wind Speed 7 mph    
Max Gust Speed -    
Visibility 10 miles    
Events      
Averages and records for this station are not official NWS values.
T = Trace of Precipitation, MM = Missing Value Source: NWS Daily Summary

Daily Weather History Graph

Daily Weather History Graph

Search for Another Location

Airport or City:

Trip Planner

Search our weather history database for the weather conditions in past years. The results will help you decide how hot, cold, wet, or windy it might be!

Date:

Astronomy

Nov. 05, 2012 Rise Set
Actual Time 7:20 AM EST 5:26 PM EST
Civil Twilight 6:50 AM EST 5:56 PM EST
Nautical Twilight 6:16 AM EST 6:30 PM EST
Astronomical Twilight 5:43 AM EST 7:03 PM EST
Moon 11:03 PM EST (11/5) 12:39 PM EST (11/5)
Length of Visible Light 11h 06m
Length of Day
10h 06m
Waning Gibbous, 63% of the Moon is Illuminated
Nov 5
Waning Gibbous
Nov 6
Last Quarter
Nov 13
New
Nov 20
First Quarter
Nov 28
Full

Hourly Weather History & Observations

Time (EST) Temp. Windchill Dew Point Humidity Pressure Visibility Wind Dir Wind Speed Gust Speed Precip Events Conditions
12:14 AM 27.5 °F 23.6 °F 23.7 °F 86% 30.16 in 10.0 mi West 3.5 mph - N/A   Clear
12:34 AM 27.5 °F 23.6 °F 23.2 °F 84% 30.16 in 10.0 mi West 3.5 mph - N/A   Clear
12:54 AM 28.6 °F 23.5 °F 24.3 °F 84% 30.17 in 10.0 mi WNW 4.6 mph - N/A   Clear
1:14 AM 28.6 °F - 24.3 °F 84% 30.16 in 10.0 mi Calm Calm - N/A   Clear
1:34 AM 27.5 °F 23.6 °F 23.5 °F 85% 30.17 in 10.0 mi NW 3.5 mph - N/A   Clear
1:54 AM 28.2 °F - 23.9 °F 84% 30.17 in 10.0 mi Calm Calm - N/A   Clear
2:14 AM 27.9 °F - 23.9 °F 85% 30.17 in 7.0 mi Calm Calm - N/A   Clear
2:34 AM 25.9 °F - 22.6 °F 88% 30.17 in 10.0 mi Calm Calm - N/A   Clear
2:54 AM 27.0 °F - 24.3 °F 90% 30.17 in 10.0 mi Calm Calm - N/A   Clear
3:14 AM 27.5 °F - 23.9 °F 86% 30.18 in 10.0 mi Calm Calm - N/A   Clear
3:34 AM 26.8 °F 22.8 °F 23.9 °F 89% 30.18 in 10.0 mi North 3.5 mph - N/A   Clear
3:54 AM 26.6 °F 22.6 °F 24.6 °F 92% 30.17 in 10.0 mi NNE 3.5 mph - N/A   Clear
4:14 AM 25.7 °F 20.1 °F 23.7 °F 92% 30.17 in 10.0 mi NNE 4.6 mph - N/A   Clear
4:34 AM 25.9 °F 20.3 °F 23.9 °F 92% 30.18 in 10.0 mi North 4.6 mph - N/A   Clear
4:54 AM 24.8 °F 19.1 °F 23.0 °F 93% 30.18 in 10.0 mi NNE 4.6 mph - N/A   Scattered Clouds
5:14 AM 25.5 °F 19.9 °F 23.7 °F 93% 30.19 in 10.0 mi North 4.6 mph - N/A   Scattered Clouds
5:34 AM 25.7 °F 21.5 °F 23.9 °F 93% 30.19 in 10.0 mi North 3.5 mph - N/A   Clear
5:54 AM 25.7 °F 21.5 °F 23.7 °F 92% 30.19 in 10.0 mi North 3.5 mph - N/A   Clear
6:14 AM 23.9 °F 18.0 °F 22.1 °F 93% 30.19 in 10.0 mi North 4.6 mph - N/A   Clear
6:34 AM 25.2 °F 19.5 °F 23.5 °F 94% 30.19 in 10.0 mi North 4.6 mph - N/A   Clear
6:54 AM 24.6 °F 18.8 °F 23.0 °F 94% 30.19 in 10.0 mi NNE 4.6 mph - N/A   Clear
7:14 AM 25.2 °F 19.5 °F 23.7 °F 94% 30.19 in 10.0 mi NNE 4.6 mph - N/A   Mostly Cloudy
7:34 AM 25.7 °F - 23.9 °F 93% 30.20 in 10.0 mi Calm Calm - N/A   Overcast
7:54 AM 26.6 °F - 24.8 °F 93% 30.20 in 10.0 mi Calm Calm - N/A   Overcast
8:14 AM 27.5 °F 23.6 °F 25.5 °F 92% 30.20 in 10.0 mi NNE 3.5 mph - N/A   Overcast
8:34 AM 28.0 °F 22.8 °F 25.7 °F 91% 30.21 in 10.0 mi NE 4.6 mph - N/A   Overcast
8:54 AM 28.4 °F 22.2 °F 25.9 °F 90% 30.21 in 10.0 mi NE 5.8 mph - N/A   Overcast
9:14 AM 29.1 °F 23.0 °F 26.2 °F 89% 30.21 in 10.0 mi ENE 5.8 mph - N/A   Overcast
9:34 AM 29.8 °F 23.9 °F 27.0 °F 89% 30.21 in 10.0 mi NE 5.8 mph - N/A   Overcast
9:54 AM 30.4 °F 24.5 °F 27.3 °F 88% 30.21 in 10.0 mi NE 5.8 mph - N/A   Overcast
10:14 AM 31.5 °F 24.9 °F 28.4 °F 88% 30.21 in 10.0 mi NE 6.9 mph - N/A   Overcast
10:34 AM 32.0 °F 27.5 °F 28.0 °F 85% 30.22 in 10.0 mi East 4.6 mph - N/A   Overcast
10:54 AM 32.2 °F 28.9 °F 28.2 °F 85% 30.22 in 10.0 mi East 3.5 mph - N/A   Overcast
11:14 AM 32.9 °F 27.5 °F 28.6 °F 84% 30.22 in 7.0 mi East 5.8 mph - N/A   Overcast
11:34 AM 33.8 °F 30.8 °F 28.9 °F 82% 30.22 in 10.0 mi East 3.5 mph - N/A   Overcast
11:54 AM 34.7 °F 30.6 °F 28.6 °F 78% 30.21 in 10.0 mi East 4.6 mph - N/A   Overcast
12:14 PM 35.2 °F 31.2 °F 27.7 °F 74% 30.21 in 10.0 mi East 4.6 mph - N/A   Overcast
12:34 PM 35.8 °F 31.9 °F 27.7 °F 72% 30.20 in 10.0 mi East 4.6 mph - N/A   Overcast
12:54 PM 36.7 °F 32.0 °F 28.0 °F 71% 30.20 in 10.0 mi East 5.8 mph - N/A   Overcast
1:14 PM 36.7 °F 32.0 °F 28.4 °F 72% 30.20 in 10.0 mi ESE 5.8 mph - N/A   Overcast
1:34 PM 37.4 °F 34.9 °F 28.8 °F 71% 30.19 in 10.0 mi ESE 3.5 mph - N/A   Overcast
1:54 PM 37.4 °F 32.8 °F 27.9 °F 68% 30.18 in 10.0 mi ESE 5.8 mph - N/A   Overcast
2:14 PM 37.2 °F 33.6 °F 26.8 °F 66% 30.18 in 10.0 mi ESE 4.6 mph - N/A   Overcast
2:33 PM 37.4 °F 32.8 °F 25.3 °F 62% 30.17 in 10.0 mi SSE 5.8 mph - N/A   Overcast
2:54 PM 37.2 °F - 25.3 °F 62% 30.17 in 10.0 mi Calm Calm - N/A   Overcast
3:14 PM 37.4 °F 34.9 °F 25.3 °F 62% 30.17 in 10.0 mi East 3.5 mph - N/A   Overcast
3:34 PM 37.2 °F 34.7 °F 24.8 °F 61% 30.16 in 10.0 mi East 3.5 mph - N/A   Overcast
3:54 PM 37.2 °F 34.7 °F 25.2 °F 62% 30.16 in 10.0 mi SE 3.5 mph - N/A   Overcast
4:14 PM 37.0 °F 34.5 °F 25.0 °F 62% 30.17 in 10.0 mi ESE 3.5 mph - N/A   Overcast
4:34 PM 36.9 °F 34.3 °F 24.8 °F 62% 30.17 in 10.0 mi SE 3.5 mph - N/A   Overcast
4:54 PM 36.5 °F 31.8 °F 24.4 °F 62% 30.17 in 10.0 mi East 5.8 mph - N/A   Overcast
5:14 PM 36.0 °F - 24.6 °F 63% 30.16 in 7.0 mi Calm Calm - N/A   Overcast
5:34 PM 34.3 °F 30.2 °F 24.4 °F 67% 30.16 in 10.0 mi ESE 4.6 mph - N/A   Scattered Clouds
5:54 PM 32.0 °F 28.7 °F 23.9 °F 72% 30.17 in 10.0 mi ENE 3.5 mph - N/A   Clear
6:14 PM 31.5 °F 28.1 °F 23.9 °F 74% 30.17 in 10.0 mi ENE 3.5 mph - N/A   Clear
6:34 PM 30.9 °F 27.5 °F 23.9 °F 75% 30.17 in 7.0 mi NE 3.5 mph - N/A   Clear
6:54 PM 30.2 °F 25.4 °F 23.9 °F 77% 30.17 in 7.0 mi ENE 4.6 mph - N/A   Clear
7:14 PM 30.2 °F 25.4 °F 23.9 °F 77% 30.17 in 10.0 mi NE 4.6 mph - N/A   Clear
7:34 PM 30.6 °F 25.8 °F 23.9 °F 76% 30.17 in 10.0 mi NE 4.6 mph - N/A   Clear
7:54 PM 29.3 °F 24.3 °F 23.2 °F 78% 30.17 in 10.0 mi ENE 4.6 mph - N/A   Clear
8:14 PM 28.8 °F 23.7 °F 23.4 °F 80% 30.17 in 10.0 mi ENE 4.6 mph - N/A   Clear
8:34 PM 29.3 °F 24.3 °F 23.5 °F 79% 30.16 in 10.0 mi ENE 4.6 mph - N/A   Clear
8:54 PM 28.8 °F 22.6 °F 23.0 °F 79% 30.17 in 10.0 mi ENE 5.8 mph - N/A   Clear
9:14 PM 29.8 °F 24.9 °F 23.2 °F 76% 30.16 in 10.0 mi East 4.6 mph - N/A   Scattered Clouds
9:34 PM 29.5 °F 24.5 °F 23.5 °F 79% 30.16 in 10.0 mi East 4.6 mph - N/A   Scattered Clouds
9:54 PM 30.6 °F 25.8 °F 23.9 °F 76% 30.17 in 10.0 mi East 4.6 mph - N/A   Scattered Clouds
10:14 PM 28.9 °F 25.2 °F 23.9 °F 81% 30.16 in 10.0 mi East 3.5 mph - N/A   Overcast
10:34 PM 30.2 °F 25.4 °F 24.4 °F 79% 30.16 in 10.0 mi East 4.6 mph - N/A   Overcast
10:54 PM 30.7 °F 27.3 °F 25.7 °F 82% 30.15 in 10.0 mi East 3.5 mph - N/A   Overcast
11:14 PM 30.9 °F 26.2 °F 26.2 °F 83% 30.15 in 10.0 mi East 4.6 mph - N/A   Overcast
11:34 PM 31.1 °F 26.4 °F 26.8 °F 84% 30.15 in 10.0 mi East 4.6 mph - N/A   Overcast
11:54 PM 31.6 °F 28.3 °F 27.1 °F 83% 30.15 in 10.0 mi East 3.5 mph - N/A   Overcast